createdAt,value
2023-05-11T03:11:14.685Z,97582.72
2023-05-11T03:16:18.380Z,97582.31
2023-05-11T03:21:24.167Z,97577.44
2023-05-11T03:26:27.839Z,97581.19
2023-05-11T03:31:30.497Z,97572.16
2023-05-11T03:36:33.911Z,97576.94
2023-05-11T03:41:38.994Z,97580.06
2023-05-11T03:46:43.919Z,97577.78
2023-05-11T03:51:48.018Z,97583.78
2023-05-11T03:56:51.711Z,97573.06
2023-05-11T04:01:55.013Z,97581.09
2023-05-11T04:06:57.233Z,97581.53
2023-05-11T04:11:59.189Z,97576.38
2023-05-11T04:17:01.286Z,97579.69
2023-05-11T04:22:02.735Z,97583.38
2023-05-11T04:27:05.280Z,97578.00
2023-05-11T04:32:06.732Z,97584.19
2023-05-11T04:37:08.208Z,97593.28
2023-05-11T04:42:11.247Z,97592.84
2023-05-11T04:47:25.752Z,97583.38
2023-05-11T04:52:28.292Z,97597.59
2023-05-11T04:57:30.243Z,97595.13
2023-05-11T05:02:33.168Z,97593.72
2023-05-11T05:07:34.753Z,97599.47
2023-05-11T05:12:36.927Z,97592.47
2023-05-11T05:17:41.782Z,97592.25
2023-05-11T05:22:43.911Z,97602.53
2023-05-11T05:27:45.481Z,97613.47
2023-05-11T05:32:58.130Z,97608.03
2023-05-11T05:38:00.709Z,97611.69
2023-05-11T05:43:02.438Z,97616.13
2023-05-11T05:48:06.089Z,97619.38
2023-05-11T05:53:08.864Z,97616.41
2023-05-11T05:58:11.064Z,97623.78
2023-05-11T06:03:12.614Z,97622.09
2023-05-11T06:08:14.238Z,97616.81
2023-05-11T06:13:15.715Z,97623.56
2023-05-11T06:18:18.899Z,97629.75
2023-05-11T06:23:20.882Z,97629.25
2023-05-11T06:28:24.401Z,97624.19
2023-05-11T06:33:28.581Z,97622.88
2023-05-11T06:38:31.007Z,97628.13
2023-05-11T06:43:32.834Z,97622.63
2023-05-11T06:48:36.937Z,97633.25
2023-05-11T06:53:38.793Z,97627.38
2023-05-11T06:58:40.224Z,97626.25
2023-05-11T07:03:41.618Z,97624.75
2023-05-11T07:08:43.017Z,97627.59
2023-05-11T07:13:45.248Z,97633.06
2023-05-11T07:18:46.743Z,97624.44
2023-05-11T07:23:48.250Z,97627.56
2023-05-11T07:28:49.659Z,97633.38
2023-05-11T07:33:51.070Z,97634.25
2023-05-11T07:38:52.485Z,97635.56
2023-05-11T07:43:54.634Z,97636.75
2023-05-11T07:49:13.693Z,97641.03
2023-05-11T07:54:19.589Z,97636.72
2023-05-11T07:59:23.051Z,97638.47
2023-05-11T08:04:26.756Z,97639.31
2023-05-11T08:09:28.169Z,97647.66
2023-05-11T08:14:29.675Z,97644.78
2023-05-11T08:19:31.145Z,97640.06
2023-05-11T08:24:32.869Z,97646.28
2023-05-11T08:29:34.279Z,97653.56
2023-05-11T08:34:35.853Z,97650.06
2023-05-11T08:39:46.580Z,97643.25
2023-05-11T08:44:49.972Z,97649.13
2023-05-11T08:49:52.944Z,97645.22
2023-05-11T08:54:54.441Z,97641.09
2023-05-11T08:59:56.328Z,97650.72
2023-05-11T09:04:59.427Z,97652.22
2023-05-11T09:10:01.340Z,97653.47
2023-05-11T09:15:03.038Z,97652.84
2023-05-11T09:20:06.382Z,97650.38
2023-05-11T09:25:11.737Z,97644.00
2023-05-11T09:35:24.914Z,97657.97
2023-05-11T09:40:33.303Z,97651.91
2023-05-11T09:45:42.779Z,97651.53
2023-05-11T09:50:44.590Z,97655.06
2023-05-11T09:55:53.878Z,97657.88
2023-05-11T10:00:55.746Z,97656.91
2023-05-11T10:06:00.406Z,97645.50
2023-05-11T10:11:02.669Z,97634.19
2023-05-11T10:16:05.535Z,97633.84
2023-05-11T10:21:07.673Z,97630.97
2023-05-11T10:26:09.318Z,97633.03
2023-05-11T10:31:11.667Z,97635.50
2023-05-11T10:41:41.419Z,97640.88
2023-05-11T10:46:52.592Z,97639.94
2023-05-11T10:52:21.718Z,97625.53
2023-05-11T10:57:44.359Z,97622.63
2023-05-11T11:02:46.047Z,97645.16
2023-05-11T11:07:58.738Z,97632.44
2023-05-11T11:13:11.324Z,97637.38
2023-05-11T11:18:23.341Z,97639.53
2023-05-11T11:23:44.787Z,97647.66
2023-05-11T11:29:00.498Z,97650.63
2023-05-11T11:34:27.118Z,97643.81
2023-05-11T11:39:44.798Z,97658.53
2023-05-11T11:44:46.730Z,97654.63
2023-05-11T11:49:53.150Z,97649.94
2023-05-11T11:55:02.462Z,97640.03
2023-05-11T12:00:10.445Z,97649.59
2023-05-11T12:05:23.401Z,97648.53
2023-05-11T12:10:25.344Z,97664.38
2023-05-11T12:15:34.140Z,97656.88
2023-05-11T12:20:35.699Z,97658.66
2023-05-11T12:25:37.128Z,97657.44
2023-05-11T12:30:38.545Z,97665.28
2023-05-11T12:35:40.639Z,97664.81
2023-05-11T12:40:52.580Z,97662.38
2023-05-11T12:45:53.975Z,97666.44
2023-05-11T12:50:55.456Z,97670.09
2023-05-11T12:55:58.916Z,97676.03
2023-05-11T13:01:00.716Z,97679.88
2023-05-11T13:06:04.922Z,97675.25
2023-05-11T13:11:35.939Z,97671.16
2023-05-11T13:16:37.421Z,97677.72
2023-05-11T13:21:38.825Z,97663.91
2023-05-11T13:26:40.368Z,97666.09
2023-05-11T13:31:44.631Z,97659.03
2023-05-11T13:36:47.053Z,97659.56
2023-05-11T13:41:48.523Z,97655.47
2023-05-11T13:46:50.274Z,97663.41
2023-05-11T13:51:52.386Z,97643.38
2023-05-11T13:56:53.894Z,97650.44
2023-05-11T14:01:55.432Z,97651.06
2023-05-11T14:06:58.006Z,97646.78
2023-05-11T14:12:00.013Z,97639.81
2023-05-11T14:17:02.008Z,97633.91
2023-05-11T14:22:03.485Z,97639.63
2023-05-11T14:27:05.479Z,97638.53
2023-05-11T14:32:07.047Z,97647.00
2023-05-11T14:37:08.963Z,97641.63
2023-05-11T14:42:10.463Z,97642.22
2023-05-11T14:47:11.956Z,97632.16
2023-05-11T14:52:13.370Z,97636.84
2023-05-11T14:57:14.857Z,97636.03
2023-05-11T15:02:16.272Z,97636.31
2023-05-11T15:07:17.705Z,97638.75
2023-05-11T15:12:19.112Z,97647.25
2023-05-11T15:17:20.706Z,97635.69
2023-05-11T15:22:22.503Z,97635.63
2023-05-11T15:27:24.020Z,97645.06
2023-05-11T15:32:25.461Z,97668.47
2023-05-11T15:37:27.967Z,97652.56
2023-05-11T15:42:29.425Z,97663.00
2023-05-11T15:47:30.914Z,97660.44
2023-05-11T15:52:32.350Z,97661.75
2023-05-11T15:57:34.561Z,97657.34
2023-05-11T16:02:36.293Z,97666.28
2023-05-11T16:07:38.500Z,97672.53
2023-05-11T16:12:39.824Z,97667.78
2023-05-11T16:17:41.302Z,97676.28
2023-05-11T16:22:42.814Z,97682.56
2023-05-11T16:27:44.315Z,97680.28
2023-05-11T16:32:45.806Z,97679.06
2023-05-11T16:37:47.736Z,97678.19
2023-05-11T16:42:49.480Z,97682.44
2023-05-11T16:47:51.898Z,97680.13
2023-05-11T16:52:53.432Z,97682.06
2023-05-11T16:57:55.002Z,97687.09
2023-05-11T17:02:56.590Z,97686.47
2023-05-11T17:07:58.276Z,97692.06
2023-05-11T17:12:59.740Z,97687.97
2023-05-11T17:18:01.212Z,97692.16
2023-05-11T17:23:02.701Z,97700.16
2023-05-11T17:28:04.202Z,97701.06
2023-05-11T17:33:06.223Z,97709.28
2023-05-11T17:38:07.856Z,97706.59
2023-05-11T17:43:09.258Z,97711.25
2023-05-11T17:48:12.711Z,97718.63
2023-05-11T17:53:14.280Z,97725.16
2023-05-11T17:58:15.678Z,97724.16
2023-05-11T18:03:17.420Z,97729.88
2023-05-11T18:08:18.996Z,97736.16
2023-05-11T18:13:20.498Z,97745.72
2023-05-11T18:18:22.559Z,97741.75
2023-05-11T18:23:24.117Z,97747.50
2023-05-11T18:28:25.625Z,97753.25
2023-05-11T18:33:28.134Z,97761.75
2023-05-11T18:38:29.679Z,97765.28
2023-05-11T18:43:31.455Z,97764.94
2023-05-11T18:48:33.554Z,97772.13
2023-05-11T18:53:34.874Z,97773.41
2023-05-11T18:58:36.326Z,97780.88
2023-05-11T19:03:38.396Z,97788.03
2023-05-11T19:08:40.006Z,97799.50
2023-05-11T19:13:42.898Z,97801.03
2023-05-11T19:18:44.376Z,97815.59
2023-05-11T19:23:48.115Z,97809.59
2023-05-11T19:28:49.574Z,97818.41
2023-05-11T19:33:51.208Z,97820.38
2023-05-11T19:38:52.749Z,97825.13
2023-05-11T19:43:54.219Z,97826.13
2023-05-11T19:48:55.965Z,97823.75
2023-05-11T19:53:57.561Z,97820.06
2023-05-11T19:58:59.342Z,97822.56
2023-05-11T20:04:01.167Z,97826.28
2023-05-11T20:09:02.946Z,97828.63
2023-05-11T20:14:05.977Z,97828.72
2023-05-11T20:19:08.737Z,97829.03
2023-05-11T20:24:10.217Z,97827.03
2023-05-11T20:29:11.728Z,97822.19
2023-05-11T20:34:13.946Z,97830.91
2023-05-11T20:39:17.205Z,97825.41
2023-05-11T20:44:21.336Z,97833.09
2023-05-11T20:49:37.425Z,97831.22
2023-05-11T20:54:40.207Z,97833.94
2023-05-11T21:04:46.416Z,97832.72
2023-05-11T21:09:47.910Z,97827.75
2023-05-11T21:14:49.321Z,97832.78
2023-05-11T21:19:50.759Z,97835.72
2023-05-11T21:24:52.452Z,97840.50
2023-05-11T21:29:53.877Z,97835.91
2023-05-11T21:34:55.309Z,97821.63
2023-05-11T21:39:56.916Z,97825.38
2023-05-11T21:44:58.334Z,97832.84
2023-05-11T21:49:59.752Z,97833.28
2023-05-11T21:55:01.218Z,97828.34
2023-05-11T22:00:02.866Z,97826.47
